sensor_id;sensor_type;location;lat;lon;timestamp;P1;durP1;ratioP1;P2;durP2;ratioP2
23519;SDS011;11936;50.820;4.336;2022-11-20T00:00:45;53.65;;;29.23;;
23519;SDS011;11936;50.820;4.336;2022-11-20T00:03:12;45.60;;;28.75;;
23519;SDS011;11936;50.820;4.336;2022-11-20T00:05:37;44.38;;;26.50;;
23519;SDS011;11936;50.820;4.336;2022-11-20T00:08:03;45.92;;;27.92;;
23519;SDS011;11936;50.820;4.336;2022-11-20T00:10:29;47.65;;;27.92;;
23519;SDS011;11936;50.820;4.336;2022-11-20T00:12:54;48.20;;;27.80;;
23519;SDS011;11936;50.820;4.336;2022-11-20T00:15:20;42.08;;;27.70;;
23519;SDS011;11936;50.820;4.336;2022-11-20T00:17:46;46.95;;;27.60;;
23519;SDS011;11936;50.820;4.336;2022-11-20T00:20:11;41.85;;;26.55;;
23519;SDS011;11936;50.820;4.336;2022-11-20T00:22:38;50.03;;;27.10;;
23519;SDS011;11936;50.820;4.336;2022-11-20T00:25:03;51.63;;;27.15;;
23519;SDS011;11936;50.820;4.336;2022-11-20T00:27:29;46.10;;;28.45;;
23519;SDS011;11936;50.820;4.336;2022-11-20T00:29:55;45.30;;;27.27;;
23519;SDS011;11936;50.820;4.336;2022-11-20T00:32:20;49.97;;;27.63;;
23519;SDS011;11936;50.820;4.336;2022-11-20T00:34:46;44.88;;;26.63;;
23519;SDS011;11936;50.820;4.336;2022-11-20T00:37:11;45.90;;;27.98;;
23519;SDS011;11936;50.820;4.336;2022-11-20T00:39:37;48.67;;;29.50;;
23519;SDS011;11936;50.820;4.336;2022-11-20T00:42:02;51.13;;;28.60;;
23519;SDS011;11936;50.820;4.336;2022-11-20T00:44:28;47.05;;;26.48;;
23519;SDS011;11936;50.820;4.336;2022-11-20T00:46:54;46.08;;;27.35;;
23519;SDS011;11936;50.820;4.336;2022-11-20T00:49:19;44.15;;;27.60;;
23519;SDS011;11936;50.820;4.336;2022-11-20T00:51:45;45.50;;;28.38;;
23519;SDS011;11936;50.820;4.336;2022-11-20T00:54:10;45.75;;;26.73;;
23519;SDS011;11936;50.820;4.336;2022-11-20T00:56:36;47.03;;;27.58;;
23519;SDS011;11936;50.820;4.336;2022-11-20T00:59:02;49.92;;;28.85;;
23519;SDS011;11936;50.820;4.336;2022-11-20T01:01:27;56.88;;;33.53;;
23519;SDS011;11936;50.820;4.336;2022-11-20T01:03:55;47.33;;;30.02;;
23519;SDS011;11936;50.820;4.336;2022-11-20T01:06:26;55.10;;;32.72;;
23519;SDS011;11936;50.820;4.336;2022-11-20T01:09:05;53.63;;;33.20;;
23519;SDS011;11936;50.820;4.336;2022-11-20T01:11:37;47.60;;;30.20;;
23519;SDS011;11936;50.820;4.336;2022-11-20T01:14:05;45.95;;;29.23;;
23519;SDS011;11936;50.820;4.336;2022-11-20T01:19:04;43.33;;;27.30;;
23519;SDS011;11936;50.820;4.336;2022-11-20T01:21:36;51.03;;;28.27;;
23519;SDS011;11936;50.820;4.336;2022-11-20T01:24:04;44.17;;;26.92;;
23519;SDS011;11936;50.820;4.336;2022-11-20T01:26:33;42.85;;;25.17;;
23519;SDS011;11936;50.820;4.336;2022-11-20T01:29:00;49.80;;;27.73;;
23519;SDS011;11936;50.820;4.336;2022-11-20T01:31:31;46.03;;;26.88;;
23519;SDS011;11936;50.820;4.336;2022-11-20T01:33:59;41.85;;;26.33;;
23519;SDS011;11936;50.820;4.336;2022-11-20T01:36:31;42.25;;;26.55;;
23519;SDS011;11936;50.820;4.336;2022-11-20T01:38:59;42.20;;;27.10;;
23519;SDS011;11936;50.820;4.336;2022-11-20T01:41:28;40.83;;;26.10;;
23519;SDS011;11936;50.820;4.336;2022-11-20T01:44:13;45.40;;;26.38;;
23519;SDS011;11936;50.820;4.336;2022-11-20T01:49:37;47.38;;;29.20;;
23519;SDS011;11936;50.820;4.336;2022-11-20T01:52:15;44.63;;;26.80;;
23519;SDS011;11936;50.820;4.336;2022-11-20T01:54:57;43.67;;;27.55;;
23519;SDS011;11936;50.820;4.336;2022-11-20T01:57:44;45.33;;;28.83;;
23519;SDS011;11936;50.820;4.336;2022-11-20T02:00:12;48.20;;;27.42;;
23519;SDS011;11936;50.820;4.336;2022-11-20T02:02:44;54.08;;;28.63;;
23519;SDS011;11936;50.820;4.336;2022-11-20T02:07:45;46.28;;;28.40;;
23519;SDS011;11936;50.820;4.336;2022-11-20T02:10:12;44.03;;;28.02;;
23519;SDS011;11936;50.820;4.336;2022-11-20T02:12:39;47.35;;;28.45;;
23519;SDS011;11936;50.820;4.336;2022-11-20T02:15:23;53.80;;;30.55;;
23519;SDS011;11936;50.820;4.336;2022-11-20T02:17:49;45.80;;;29.05;;
23519;SDS011;11936;50.820;4.336;2022-11-20T02:20:14;48.55;;;26.92;;
23519;SDS011;11936;50.820;4.336;2022-11-20T02:22:54;45.47;;;27.70;;
23519;SDS011;11936;50.820;4.336;2022-11-20T02:25:24;46.55;;;27.27;;
23519;SDS011;11936;50.820;4.336;2022-11-20T02:27:51;46.47;;;27.48;;
23519;SDS011;11936;50.820;4.336;2022-11-20T02:30:17;44.80;;;26.98;;
23519;SDS011;11936;50.820;4.336;2022-11-20T02:32:43;46.47;;;27.70;;
23519;SDS011;11936;50.820;4.336;2022-11-20T02:35:09;51.53;;;28.35;;
23519;SDS011;11936;50.820;4.336;2022-11-20T02:37:56;49.50;;;27.23;;
23519;SDS011;11936;50.820;4.336;2022-11-20T02:40:24;45.55;;;28.35;;
23519;SDS011;11936;50.820;4.336;2022-11-20T02:42:53;41.70;;;27.85;;
23519;SDS011;11936;50.820;4.336;2022-11-20T02:45:20;56.65;;;29.73;;
23519;SDS011;11936;50.820;4.336;2022-11-20T02:47:45;53.00;;;29.73;;
23519;SDS011;11936;50.820;4.336;2022-11-20T02:50:11;48.35;;;26.80;;
23519;SDS011;11936;50.820;4.336;2022-11-20T02:52:37;49.75;;;28.67;;
23519;SDS011;11936;50.820;4.336;2022-11-20T02:55:03;50.63;;;28.58;;
23519;SDS011;11936;50.820;4.336;2022-11-20T02:57:29;46.40;;;26.80;;
23519;SDS011;11936;50.820;4.336;2022-11-20T02:59:54;45.97;;;26.70;;
23519;SDS011;11936;50.820;4.336;2022-11-20T03:02:20;48.28;;;27.60;;
23519;SDS011;11936;50.820;4.336;2022-11-20T03:04:46;48.45;;;27.55;;
23519;SDS011;11936;50.820;4.336;2022-11-20T03:07:13;47.38;;;26.58;;
23519;SDS011;11936;50.820;4.336;2022-11-20T03:09:38;51.45;;;26.55;;
23519;SDS011;11936;50.820;4.336;2022-11-20T03:12:04;44.83;;;26.17;;
23519;SDS011;11936;50.820;4.336;2022-11-20T03:14:30;44.45;;;25.73;;
23519;SDS011;11936;50.820;4.336;2022-11-20T03:16:56;45.35;;;26.27;;
23519;SDS011;11936;50.820;4.336;2022-11-20T03:19:21;45.15;;;25.67;;
23519;SDS011;11936;50.820;4.336;2022-11-20T03:21:47;47.22;;;27.15;;
23519;SDS011;11936;50.820;4.336;2022-11-20T03:24:13;47.30;;;26.95;;
23519;SDS011;11936;50.820;4.336;2022-11-20T03:26:39;47.40;;;27.48;;
23519;SDS011;11936;50.820;4.336;2022-11-20T03:29:05;45.40;;;25.30;;
23519;SDS011;11936;50.820;4.336;2022-11-20T03:31:32;45.53;;;26.90;;
23519;SDS011;11936;50.820;4.336;2022-11-20T03:33:59;49.63;;;26.60;;
23519;SDS011;11936;50.820;4.336;2022-11-20T03:36:26;44.97;;;26.10;;
23519;SDS011;11936;50.820;4.336;2022-11-20T03:38:53;41.58;;;24.85;;
23519;SDS011;11936;50.820;4.336;2022-11-20T03:41:23;42.42;;;24.17;;
23519;SDS011;11936;50.820;4.336;2022-11-20T03:43:55;44.40;;;25.10;;
23519;SDS011;11936;50.820;4.336;2022-11-20T03:46:22;39.58;;;23.90;;
23519;SDS011;11936;50.820;4.336;2022-11-20T03:48:48;42.58;;;24.88;;
23519;SDS011;11936;50.820;4.336;2022-11-20T03:51:15;45.70;;;25.15;;
23519;SDS011;11936;50.820;4.336;2022-11-20T03:53:44;39.30;;;23.77;;
23519;SDS011;11936;50.820;4.336;2022-11-20T03:56:11;47.53;;;25.83;;
23519;SDS011;11936;50.820;4.336;2022-11-20T03:58:39;42.78;;;25.27;;
23519;SDS011;11936;50.820;4.336;2022-11-20T04:01:06;41.47;;;25.17;;
23519;SDS011;11936;50.820;4.336;2022-11-20T04:03:32;40.47;;;24.67;;
23519;SDS011;11936;50.820;4.336;2022-11-20T04:06:01;39.88;;;23.52;;
23519;SDS011;11936;50.820;4.336;2022-11-20T04:08:47;44.28;;;24.23;;
23519;SDS011;11936;50.820;4.336;2022-11-20T04:11:16;44.65;;;24.60;;
23519;SDS011;11936;50.820;4.336;2022-11-20T04:13:50;45.13;;;24.98;;
23519;SDS011;11936;50.820;4.336;2022-11-20T04:16:18;42.35;;;26.20;;
23519;SDS011;11936;50.820;4.336;2022-11-20T04:18:45;45.28;;;26.70;;
23519;SDS011;11936;50.820;4.336;2022-11-20T04:21:11;43.75;;;24.65;;
23519;SDS011;11936;50.820;4.336;2022-11-20T04:23:36;49.05;;;26.83;;
23519;SDS011;11936;50.820;4.336;2022-11-20T04:28:32;50.10;;;25.15;;
23519;SDS011;11936;50.820;4.336;2022-11-20T04:31:02;53.17;;;26.10;;
23519;SDS011;11936;50.820;4.336;2022-11-20T04:33:33;46.47;;;25.15;;
23519;SDS011;11936;50.820;4.336;2022-11-20T04:36:00;49.92;;;27.38;;
23519;SDS011;11936;50.820;4.336;2022-11-20T04:38:30;50.17;;;26.65;;
23519;SDS011;11936;50.820;4.336;2022-11-20T04:40:57;49.30;;;26.13;;
23519;SDS011;11936;50.820;4.336;2022-11-20T04:43:24;58.08;;;28.83;;
23519;SDS011;11936;50.820;4.336;2022-11-20T04:45:50;56.05;;;29.25;;
23519;SDS011;11936;50.820;4.336;2022-11-20T04:48:20;56.55;;;28.90;;
23519;SDS011;11936;50.820;4.336;2022-11-20T04:50:46;52.33;;;27.33;;
23519;SDS011;11936;50.820;4.336;2022-11-20T04:53:12;52.53;;;28.63;;
23519;SDS011;11936;50.820;4.336;2022-11-20T04:55:37;55.13;;;28.15;;
23519;SDS011;11936;50.820;4.336;2022-11-20T04:58:03;52.58;;;26.95;;
23519;SDS011;11936;50.820;4.336;2022-11-20T05:00:28;53.47;;;28.50;;
23519;SDS011;11936;50.820;4.336;2022-11-20T05:02:54;57.40;;;29.65;;
23519;SDS011;11936;50.820;4.336;2022-11-20T05:05:20;61.33;;;29.25;;
23519;SDS011;11936;50.820;4.336;2022-11-20T05:07:45;60.58;;;30.15;;
23519;SDS011;11936;50.820;4.336;2022-11-20T05:10:11;58.92;;;28.70;;
23519;SDS011;11936;50.820;4.336;2022-11-20T05:12:37;59.88;;;28.80;;
23519;SDS011;11936;50.820;4.336;2022-11-20T05:15:02;59.30;;;29.98;;
23519;SDS011;11936;50.820;4.336;2022-11-20T05:17:28;60.15;;;30.17;;
23519;SDS011;11936;50.820;4.336;2022-11-20T05:19:53;60.08;;;31.60;;
23519;SDS011;11936;50.820;4.336;2022-11-20T05:22:19;60.72;;;28.98;;
23519;SDS011;11936;50.820;4.336;2022-11-20T05:24:45;61.60;;;30.10;;
23519;SDS011;11936;50.820;4.336;2022-11-20T05:27:10;63.00;;;30.63;;
23519;SDS011;11936;50.820;4.336;2022-11-20T05:29:36;61.95;;;29.58;;
23519;SDS011;11936;50.820;4.336;2022-11-20T05:32:02;60.15;;;29.00;;
23519;SDS011;11936;50.820;4.336;2022-11-20T05:34:27;57.88;;;29.02;;
23519;SDS011;11936;50.820;4.336;2022-11-20T05:36:53;57.75;;;28.80;;
23519;SDS011;11936;50.820;4.336;2022-11-20T05:39:18;56.22;;;28.85;;
23519;SDS011;11936;50.820;4.336;2022-11-20T05:41:44;61.75;;;31.02;;
23519;SDS011;11936;50.820;4.336;2022-11-20T05:44:10;64.82;;;30.15;;
23519;SDS011;11936;50.820;4.336;2022-11-20T05:46:36;59.30;;;30.10;;
23519;SDS011;11936;50.820;4.336;2022-11-20T05:49:02;63.75;;;31.23;;
23519;SDS011;11936;50.820;4.336;2022-11-20T05:51:27;61.72;;;30.05;;
23519;SDS011;11936;50.820;4.336;2022-11-20T05:53:53;66.80;;;31.65;;
23519;SDS011;11936;50.820;4.336;2022-11-20T05:56:21;65.32;;;32.15;;
23519;SDS011;11936;50.820;4.336;2022-11-20T05:58:47;63.42;;;31.70;;
23519;SDS011;11936;50.820;4.336;2022-11-20T06:01:15;66.88;;;33.60;;
23519;SDS011;11936;50.820;4.336;2022-11-20T06:03:43;66.97;;;32.65;;
23519;SDS011;11936;50.820;4.336;2022-11-20T06:06:12;63.28;;;31.13;;
23519;SDS011;11936;50.820;4.336;2022-11-20T06:08:38;65.95;;;31.98;;
23519;SDS011;11936;50.820;4.336;2022-11-20T06:11:04;63.58;;;32.38;;
23519;SDS011;11936;50.820;4.336;2022-11-20T06:13:31;65.50;;;31.35;;
23519;SDS011;11936;50.820;4.336;2022-11-20T06:15:57;61.90;;;30.35;;
23519;SDS011;11936;50.820;4.336;2022-11-20T06:18:22;64.07;;;29.95;;
23519;SDS011;11936;50.820;4.336;2022-11-20T06:20:48;69.00;;;30.67;;
23519;SDS011;11936;50.820;4.336;2022-11-20T06:23:13;64.57;;;30.77;;
23519;SDS011;11936;50.820;4.336;2022-11-20T06:25:39;65.20;;;31.52;;
23519;SDS011;11936;50.820;4.336;2022-11-20T06:28:06;61.35;;;29.02;;
23519;SDS011;11936;50.820;4.336;2022-11-20T06:30:32;62.00;;;29.92;;
23519;SDS011;11936;50.820;4.336;2022-11-20T06:32:58;57.60;;;28.42;;
23519;SDS011;11936;50.820;4.336;2022-11-20T06:35:23;61.10;;;30.25;;
23519;SDS011;11936;50.820;4.336;2022-11-20T06:37:49;68.80;;;31.27;;
23519;SDS011;11936;50.820;4.336;2022-11-20T06:40:15;61.28;;;29.80;;
23519;SDS011;11936;50.820;4.336;2022-11-20T06:42:40;55.83;;;28.27;;
23519;SDS011;11936;50.820;4.336;2022-11-20T06:45:06;58.35;;;30.30;;
23519;SDS011;11936;50.820;4.336;2022-11-20T06:47:32;62.67;;;28.92;;
23519;SDS011;11936;50.820;4.336;2022-11-20T06:49:58;60.75;;;28.65;;
23519;SDS011;11936;50.820;4.336;2022-11-20T06:52:23;59.90;;;28.52;;
23519;SDS011;11936;50.820;4.336;2022-11-20T06:54:49;58.58;;;29.70;;
23519;SDS011;11936;50.820;4.336;2022-11-20T06:57:15;57.90;;;28.20;;
23519;SDS011;11936;50.820;4.336;2022-11-20T06:59:40;52.22;;;26.70;;
23519;SDS011;11936;50.820;4.336;2022-11-20T07:02:09;59.75;;;30.65;;
23519;SDS011;11936;50.820;4.336;2022-11-20T07:04:35;57.20;;;29.88;;
23519;SDS011;11936;50.820;4.336;2022-11-20T07:07:01;52.78;;;29.15;;
23519;SDS011;11936;50.820;4.336;2022-11-20T07:09:27;53.67;;;28.13;;
23519;SDS011;11936;50.820;4.336;2022-11-20T07:11:52;55.38;;;29.05;;
23519;SDS011;11936;50.820;4.336;2022-11-20T07:14:18;50.70;;;27.13;;
23519;SDS011;11936;50.820;4.336;2022-11-20T07:16:44;55.15;;;28.65;;
23519;SDS011;11936;50.820;4.336;2022-11-20T07:19:09;52.85;;;28.50;;
23519;SDS011;11936;50.820;4.336;2022-11-20T07:21:35;49.45;;;26.95;;
23519;SDS011;11936;50.820;4.336;2022-11-20T07:24:00;50.30;;;28.17;;
23519;SDS011;11936;50.820;4.336;2022-11-20T07:26:26;53.42;;;26.27;;
23519;SDS011;11936;50.820;4.336;2022-11-20T07:28:52;51.97;;;27.02;;
23519;SDS011;11936;50.820;4.336;2022-11-20T07:31:17;46.47;;;27.08;;
23519;SDS011;11936;50.820;4.336;2022-11-20T07:33:43;51.25;;;26.10;;
23519;SDS011;11936;50.820;4.336;2022-11-20T07:36:08;45.90;;;25.23;;
23519;SDS011;11936;50.820;4.336;2022-11-20T07:38:34;48.58;;;26.05;;
23519;SDS011;11936;50.820;4.336;2022-11-20T07:40:59;48.97;;;26.17;;
23519;SDS011;11936;50.820;4.336;2022-11-20T07:43:28;52.72;;;26.08;;
23519;SDS011;11936;50.820;4.336;2022-11-20T07:45:57;47.35;;;26.42;;
23519;SDS011;11936;50.820;4.336;2022-11-20T07:48:23;58.03;;;26.45;;
23519;SDS011;11936;50.820;4.336;2022-11-20T07:50:52;56.72;;;27.10;;
23519;SDS011;11936;50.820;4.336;2022-11-20T07:53:18;57.60;;;27.50;;
23519;SDS011;11936;50.820;4.336;2022-11-20T07:55:46;59.03;;;26.98;;
23519;SDS011;11936;50.820;4.336;2022-11-20T07:58:12;49.55;;;25.75;;
23519;SDS011;11936;50.820;4.336;2022-11-20T08:00:38;49.00;;;24.73;;
23519;SDS011;11936;50.820;4.336;2022-11-20T08:03:05;51.78;;;26.65;;
23519;SDS011;11936;50.820;4.336;2022-11-20T08:05:31;49.40;;;25.67;;
23519;SDS011;11936;50.820;4.336;2022-11-20T08:07:56;53.17;;;26.52;;
23519;SDS011;11936;50.820;4.336;2022-11-20T08:10:22;52.00;;;25.27;;
23519;SDS011;11936;50.820;4.336;2022-11-20T08:12:49;51.60;;;25.95;;
23519;SDS011;11936;50.820;4.336;2022-11-20T08:15:35;50.65;;;24.55;;
23519;SDS011;11936;50.820;4.336;2022-11-20T08:18:02;49.50;;;24.73;;
23519;SDS011;11936;50.820;4.336;2022-11-20T08:20:30;47.08;;;24.75;;
23519;SDS011;11936;50.820;4.336;2022-11-20T08:23:00;52.35;;;25.70;;
23519;SDS011;11936;50.820;4.336;2022-11-20T08:25:27;46.75;;;25.13;;
23519;SDS011;11936;50.820;4.336;2022-11-20T08:27:54;47.63;;;24.92;;
23519;SDS011;11936;50.820;4.336;2022-11-20T08:30:23;49.55;;;25.25;;
23519;SDS011;11936;50.820;4.336;2022-11-20T08:32:48;54.05;;;26.20;;
23519;SDS011;11936;50.820;4.336;2022-11-20T08:35:14;53.60;;;25.85;;
23519;SDS011;11936;50.820;4.336;2022-11-20T08:37:39;50.58;;;24.30;;
23519;SDS011;11936;50.820;4.336;2022-11-20T08:40:07;47.35;;;24.83;;
23519;SDS011;11936;50.820;4.336;2022-11-20T08:42:35;51.30;;;24.55;;
23519;SDS011;11936;50.820;4.336;2022-11-20T08:45:00;52.83;;;27.50;;
23519;SDS011;11936;50.820;4.336;2022-11-20T08:47:26;54.08;;;24.38;;
23519;SDS011;11936;50.820;4.336;2022-11-20T08:49:52;49.85;;;25.55;;
23519;SDS011;11936;50.820;4.336;2022-11-20T08:52:17;53.45;;;23.80;;
23519;SDS011;11936;50.820;4.336;2022-11-20T08:54:43;45.90;;;23.40;;
23519;SDS011;11936;50.820;4.336;2022-11-20T08:57:08;54.50;;;25.67;;
23519;SDS011;11936;50.820;4.336;2022-11-20T08:59:34;48.25;;;24.02;;
23519;SDS011;11936;50.820;4.336;2022-11-20T09:02:00;45.35;;;24.70;;
23519;SDS011;11936;50.820;4.336;2022-11-20T09:04:25;46.47;;;23.50;;
23519;SDS011;11936;50.820;4.336;2022-11-20T09:06:51;50.22;;;24.52;;
23519;SDS011;11936;50.820;4.336;2022-11-20T09:09:17;46.35;;;23.90;;
23519;SDS011;11936;50.820;4.336;2022-11-20T09:11:44;45.40;;;22.50;;
23519;SDS011;11936;50.820;4.336;2022-11-20T09:14:10;45.58;;;22.65;;
23519;SDS011;11936;50.820;4.336;2022-11-20T09:16:35;55.28;;;23.80;;
23519;SDS011;11936;50.820;4.336;2022-11-20T09:19:01;43.05;;;22.48;;
23519;SDS011;11936;50.820;4.336;2022-11-20T09:21:26;50.00;;;22.48;;
23519;SDS011;11936;50.820;4.336;2022-11-20T09:23:52;41.22;;;21.05;;
23519;SDS011;11936;50.820;4.336;2022-11-20T09:26:17;40.10;;;21.90;;
23519;SDS011;11936;50.820;4.336;2022-11-20T09:28:44;33.35;;;20.63;;
23519;SDS011;11936;50.820;4.336;2022-11-20T09:31:43;41.72;;;20.65;;
23519;SDS011;11936;50.820;4.336;2022-11-20T09:34:01;41.70;;;20.23;;
23519;SDS011;11936;50.820;4.336;2022-11-20T09:36:27;35.65;;;20.65;;
23519;SDS011;11936;50.820;4.336;2022-11-20T09:38:53;36.45;;;20.52;;
23519;SDS011;11936;50.820;4.336;2022-11-20T09:44:20;38.70;;;20.33;;
23519;SDS011;11936;50.820;4.336;2022-11-20T09:49:46;31.95;;;18.38;;
23519;SDS011;11936;50.820;4.336;2022-11-20T09:52:39;30.10;;;17.08;;
23519;SDS011;11936;50.820;4.336;2022-11-20T09:55:40;29.98;;;16.63;;
23519;SDS011;11936;50.820;4.336;2022-11-20T09:58:06;31.08;;;16.67;;
23519;SDS011;11936;50.820;4.336;2022-11-20T10:00:37;28.35;;;16.50;;
23519;SDS011;11936;50.820;4.336;2022-11-20T10:03:11;22.52;;;14.82;;
23519;SDS011;11936;50.820;4.336;2022-11-20T10:05:45;28.40;;;15.38;;
23519;SDS011;11936;50.820;4.336;2022-11-20T10:08:22;22.02;;;13.02;;
23519;SDS011;11936;50.820;4.336;2022-11-20T10:10:50;23.92;;;12.85;;
23519;SDS011;11936;50.820;4.336;2022-11-20T10:16:41;16.90;;;10.07;;
23519;SDS011;11936;50.820;4.336;2022-11-20T10:19:26;19.33;;;11.23;;
23519;SDS011;11936;50.820;4.336;2022-11-20T10:24:44;13.90;;;8.73;;
23519;SDS011;11936;50.820;4.336;2022-11-20T10:27:26;19.02;;;7.32;;
23519;SDS011;11936;50.820;4.336;2022-11-20T10:30:14;13.57;;;8.30;;
23519;SDS011;11936;50.820;4.336;2022-11-20T10:32:47;16.38;;;8.23;;
23519;SDS011;11936;50.820;4.336;2022-11-20T10:37:44;13.63;;;7.60;;
23519;SDS011;11936;50.820;4.336;2022-11-20T10:40:33;12.48;;;6.75;;
23519;SDS011;11936;50.820;4.336;2022-11-20T10:43:13;14.57;;;6.35;;
23519;SDS011;11936;50.820;4.336;2022-11-20T10:45:53;15.55;;;5.65;;
23519;SDS011;11936;50.820;4.336;2022-11-20T10:48:25;10.48;;;5.32;;
23519;SDS011;11936;50.820;4.336;2022-11-20T10:54:07;14.27;;;5.63;;
23519;SDS011;11936;50.820;4.336;2022-11-20T10:56:40;10.82;;;6.18;;
23519;SDS011;11936;50.820;4.336;2022-11-20T11:01:47;12.43;;;4.80;;
23519;SDS011;11936;50.820;4.336;2022-11-20T11:04:18;11.48;;;4.93;;
23519;SDS011;11936;50.820;4.336;2022-11-20T11:10:22;8.37;;;4.00;;
23519;SDS011;11936;50.820;4.336;2022-11-20T11:13:01;9.35;;;4.05;;
23519;SDS011;11936;50.820;4.336;2022-11-20T11:15:28;12.50;;;4.68;;
23519;SDS011;11936;50.820;4.336;2022-11-20T11:18:01;6.53;;;4.75;;
23519;SDS011;11936;50.820;4.336;2022-11-20T11:20:26;7.82;;;3.50;;
23519;SDS011;11936;50.820;4.336;2022-11-20T11:22:53;7.90;;;3.65;;
23519;SDS011;11936;50.820;4.336;2022-11-20T11:25:28;6.38;;;3.63;;
23519;SDS011;11936;50.820;4.336;2022-11-20T11:27:57;8.35;;;3.88;;
23519;SDS011;11936;50.820;4.336;2022-11-20T11:30:24;12.45;;;4.50;;
23519;SDS011;11936;50.820;4.336;2022-11-20T11:33:02;5.40;;;3.97;;
23519;SDS011;11936;50.820;4.336;2022-11-20T11:35:29;9.23;;;3.42;;
23519;SDS011;11936;50.820;4.336;2022-11-20T11:38:03;7.18;;;3.25;;
23519;SDS011;11936;50.820;4.336;2022-11-20T11:40:37;7.85;;;4.30;;
23519;SDS011;11936;50.820;4.336;2022-11-20T11:43:05;7.47;;;3.13;;
23519;SDS011;11936;50.820;4.336;2022-11-20T11:46:01;7.32;;;3.80;;
23519;SDS011;11936;50.820;4.336;2022-11-20T11:48:27;5.82;;;3.33;;
23519;SDS011;11936;50.820;4.336;2022-11-20T11:50:52;8.35;;;3.50;;
23519;SDS011;11936;50.820;4.336;2022-11-20T11:53:22;9.25;;;3.65;;
23519;SDS011;11936;50.820;4.336;2022-11-20T11:56:04;8.48;;;3.22;;
23519;SDS011;11936;50.820;4.336;2022-11-20T12:06:36;5.95;;;3.10;;
23519;SDS011;11936;50.820;4.336;2022-11-20T12:09:05;12.30;;;3.78;;
23519;SDS011;11936;50.820;4.336;2022-11-20T12:11:44;5.88;;;3.45;;
23519;SDS011;11936;50.820;4.336;2022-11-20T12:14:40;18.90;;;4.82;;
23519;SDS011;11936;50.820;4.336;2022-11-20T12:17:10;8.20;;;3.42;;
23519;SDS011;11936;50.820;4.336;2022-11-20T12:19:38;9.85;;;2.78;;
23519;SDS011;11936;50.820;4.336;2022-11-20T12:22:16;5.90;;;2.72;;
23519;SDS011;11936;50.820;4.336;2022-11-20T12:25:16;7.50;;;3.38;;
23519;SDS011;11936;50.820;4.336;2022-11-20T12:36:29;9.73;;;3.85;;
23519;SDS011;11936;50.820;4.336;2022-11-20T12:45:33;12.20;;;3.22;;
23519;SDS011;11936;50.820;4.336;2022-11-20T12:56:50;6.22;;;3.63;;
23519;SDS011;11936;50.820;4.336;2022-11-20T12:59:57;6.75;;;4.03;;
23519;SDS011;11936;50.820;4.336;2022-11-20T13:07:57;11.00;;;3.60;;
23519;SDS011;11936;50.820;4.336;2022-11-20T13:10:46;8.80;;;4.32;;
23519;SDS011;11936;50.820;4.336;2022-11-20T13:13:40;7.88;;;4.13;;
23519;SDS011;11936;50.820;4.336;2022-11-20T13:18:42;7.78;;;4.35;;
23519;SDS011;11936;50.820;4.336;2022-11-20T13:21:17;5.35;;;3.53;;
23519;SDS011;11936;50.820;4.336;2022-11-20T13:23:45;7.65;;;3.30;;
23519;SDS011;11936;50.820;4.336;2022-11-20T13:26:19;5.38;;;2.85;;
23519;SDS011;11936;50.820;4.336;2022-11-20T13:28:47;6.90;;;3.08;;
23519;SDS011;11936;50.820;4.336;2022-11-20T13:31:34;8.38;;;2.92;;
23519;SDS011;11936;50.820;4.336;2022-11-20T13:34:10;4.05;;;2.20;;
23519;SDS011;11936;50.820;4.336;2022-11-20T13:36:47;3.95;;;2.67;;
23519;SDS011;11936;50.820;4.336;2022-11-20T13:39:28;5.47;;;2.83;;
23519;SDS011;11936;50.820;4.336;2022-11-20T13:41:56;5.25;;;2.63;;
23519;SDS011;11936;50.820;4.336;2022-11-20T13:44:53;4.30;;;2.50;;
23519;SDS011;11936;50.820;4.336;2022-11-20T13:47:23;6.07;;;2.58;;
23519;SDS011;11936;50.820;4.336;2022-11-20T13:49:51;6.03;;;3.03;;
23519;SDS011;11936;50.820;4.336;2022-11-20T13:58:55;4.35;;;2.75;;
23519;SDS011;11936;50.820;4.336;2022-11-20T14:01:08;4.30;;;2.58;;
23519;SDS011;11936;50.820;4.336;2022-11-20T14:03:43;5.07;;;2.50;;
23519;SDS011;11936;50.820;4.336;2022-11-20T14:06:15;4.10;;;2.63;;
23519;SDS011;11936;50.820;4.336;2022-11-20T14:08:52;3.17;;;2.05;;
23519;SDS011;11936;50.820;4.336;2022-11-20T14:11:19;2.83;;;2.03;;
23519;SDS011;11936;50.820;4.336;2022-11-20T14:14:03;4.35;;;2.33;;
23519;SDS011;11936;50.820;4.336;2022-11-20T14:16:40;2.40;;;1.83;;
23519;SDS011;11936;50.820;4.336;2022-11-20T14:19:48;5.25;;;2.10;;
23519;SDS011;11936;50.820;4.336;2022-11-20T14:22:16;3.17;;;1.88;;
23519;SDS011;11936;50.820;4.336;2022-11-20T14:24:44;3.00;;;1.73;;
23519;SDS011;11936;50.820;4.336;2022-11-20T14:27:12;2.47;;;2.00;;
23519;SDS011;11936;50.820;4.336;2022-11-20T14:29:39;3.20;;;1.92;;
23519;SDS011;11936;50.820;4.336;2022-11-20T14:32:08;6.13;;;2.38;;
23519;SDS011;11936;50.820;4.336;2022-11-20T14:34:38;3.10;;;2.10;;
23519;SDS011;11936;50.820;4.336;2022-11-20T14:37:09;2.92;;;2.08;;
23519;SDS011;11936;50.820;4.336;2022-11-20T14:39:40;2.55;;;1.98;;
23519;SDS011;11936;50.820;4.336;2022-11-20T14:42:14;4.55;;;2.25;;
23519;SDS011;11936;50.820;4.336;2022-11-20T14:44:41;2.50;;;2.10;;
23519;SDS011;11936;50.820;4.336;2022-11-20T14:47:08;13.35;;;2.60;;
23519;SDS011;11936;50.820;4.336;2022-11-20T14:49:37;6.65;;;2.72;;
23519;SDS011;11936;50.820;4.336;2022-11-20T14:52:15;3.33;;;2.80;;
23519;SDS011;11936;50.820;4.336;2022-11-20T14:54:43;5.75;;;3.08;;
23519;SDS011;11936;50.820;4.336;2022-11-20T14:57:20;5.03;;;2.63;;
23519;SDS011;11936;50.820;4.336;2022-11-20T14:59:46;4.25;;;2.30;;
23519;SDS011;11936;50.820;4.336;2022-11-20T15:02:12;4.55;;;2.50;;
23519;SDS011;11936;50.820;4.336;2022-11-20T15:04:45;3.40;;;1.92;;
23519;SDS011;11936;50.820;4.336;2022-11-20T15:07:25;3.65;;;2.38;;
23519;SDS011;11936;50.820;4.336;2022-11-20T15:10:02;3.10;;;2.03;;
23519;SDS011;11936;50.820;4.336;2022-11-20T15:12:29;3.42;;;1.85;;
23519;SDS011;11936;50.820;4.336;2022-11-20T15:14:56;3.55;;;2.42;;
23519;SDS011;11936;50.820;4.336;2022-11-20T15:17:24;4.70;;;2.45;;
23519;SDS011;11936;50.820;4.336;2022-11-20T15:19:50;2.63;;;2.22;;
23519;SDS011;11936;50.820;4.336;2022-11-20T15:22:17;2.05;;;1.77;;
23519;SDS011;11936;50.820;4.336;2022-11-20T15:24:42;4.85;;;2.60;;
23519;SDS011;11936;50.820;4.336;2022-11-20T15:27:09;5.50;;;2.60;;
23519;SDS011;11936;50.820;4.336;2022-11-20T15:29:35;7.90;;;3.00;;
23519;SDS011;11936;50.820;4.336;2022-11-20T15:32:02;4.70;;;2.80;;
23519;SDS011;11936;50.820;4.336;2022-11-20T15:34:28;3.80;;;2.47;;
23519;SDS011;11936;50.820;4.336;2022-11-20T15:36:53;7.90;;;2.85;;
23519;SDS011;11936;50.820;4.336;2022-11-20T15:39:19;10.70;;;2.40;;
23519;SDS011;11936;50.820;4.336;2022-11-20T15:41:45;3.08;;;2.42;;
23519;SDS011;11936;50.820;4.336;2022-11-20T15:44:11;5.57;;;2.55;;
23519;SDS011;11936;50.820;4.336;2022-11-20T15:46:37;3.67;;;2.60;;
23519;SDS011;11936;50.820;4.336;2022-11-20T15:49:09;7.80;;;2.80;;
23519;SDS011;11936;50.820;4.336;2022-11-20T15:51:38;8.57;;;3.47;;
23519;SDS011;11936;50.820;4.336;2022-11-20T15:54:13;10.68;;;3.13;;
23519;SDS011;11936;50.820;4.336;2022-11-20T15:59:10;26.20;;;5.03;;
23519;SDS011;11936;50.820;4.336;2022-11-20T16:01:37;7.85;;;2.97;;
23519;SDS011;11936;50.820;4.336;2022-11-20T16:04:04;8.32;;;2.90;;